sensor_id;sensor_type;location;lat;lon;timestamp;P1;durP1;ratioP1;P2;durP2;ratioP2
31910;SDS011;18457;52.432;16.914;2024-01-30T00:01:42;65.20;;;30.10;;
31910;SDS011;18457;52.432;16.914;2024-01-30T00:04:14;69.80;;;31.30;;
31910;SDS011;18457;52.432;16.914;2024-01-30T00:09:17;75.70;;;32.70;;
31910;SDS011;18457;52.432;16.914;2024-01-30T00:11:49;66.10;;;31.50;;
31910;SDS011;18457;52.432;16.914;2024-01-30T00:14:21;76.20;;;32.90;;
31910;SDS011;18457;52.432;16.914;2024-01-30T00:16:53;76.80;;;33.70;;
31910;SDS011;18457;52.432;16.914;2024-01-30T00:19:25;69.30;;;32.10;;
31910;SDS011;18457;52.432;16.914;2024-01-30T00:21:57;54.80;;;23.20;;
31910;SDS011;18457;52.432;16.914;2024-01-30T00:24:29;71.50;;;32.30;;
31910;SDS011;18457;52.432;16.914;2024-01-30T00:27:01;67.80;;;32.60;;
31910;SDS011;18457;52.432;16.914;2024-01-30T00:29:33;49.50;;;24.20;;
31910;SDS011;18457;52.432;16.914;2024-01-30T00:32:06;71.10;;;31.10;;
31910;SDS011;18457;52.432;16.914;2024-01-30T00:34:38;71.80;;;31.00;;
31910;SDS011;18457;52.432;16.914;2024-01-30T00:37:12;63.70;;;30.30;;
31910;SDS011;18457;52.432;16.914;2024-01-30T00:39:44;45.20;;;22.50;;
31910;SDS011;18457;52.432;16.914;2024-01-30T00:42:15;64.30;;;29.00;;
31910;SDS011;18457;52.432;16.914;2024-01-30T00:44:48;66.40;;;29.70;;
31910;SDS011;18457;52.432;16.914;2024-01-30T00:47:20;69.40;;;30.80;;
31910;SDS011;18457;52.432;16.914;2024-01-30T00:49:52;73.10;;;32.00;;
31910;SDS011;18457;52.432;16.914;2024-01-30T00:52:24;65.70;;;30.60;;
31910;SDS011;18457;52.432;16.914;2024-01-30T00:54:56;66.90;;;30.10;;
31910;SDS011;18457;52.432;16.914;2024-01-30T00:57:28;65.60;;;29.50;;
31910;SDS011;18457;52.432;16.914;2024-01-30T01:00:00;72.90;;;31.80;;
31910;SDS011;18457;52.432;16.914;2024-01-30T01:02:35;68.30;;;31.10;;
31910;SDS011;18457;52.432;16.914;2024-01-30T01:05:08;74.00;;;32.50;;
31910;SDS011;18457;52.432;16.914;2024-01-30T01:07:40;63.00;;;31.30;;
31910;SDS011;18457;52.432;16.914;2024-01-30T01:10:13;64.00;;;30.70;;
31910;SDS011;18457;52.432;16.914;2024-01-30T01:12:45;75.00;;;30.90;;
31910;SDS011;18457;52.432;16.914;2024-01-30T01:15:18;68.50;;;30.80;;
31910;SDS011;18457;52.432;16.914;2024-01-30T01:17:50;44.30;;;22.60;;
31910;SDS011;18457;52.432;16.914;2024-01-30T01:20:22;66.30;;;30.00;;
31910;SDS011;18457;52.432;16.914;2024-01-30T01:22:55;64.20;;;30.00;;
31910;SDS011;18457;52.432;16.914;2024-01-30T01:25:26;67.30;;;30.10;;
31910;SDS011;18457;52.432;16.914;2024-01-30T01:27:59;70.30;;;30.90;;
31910;SDS011;18457;52.432;16.914;2024-01-30T01:30:31;64.90;;;29.50;;
31910;SDS011;18457;52.432;16.914;2024-01-30T01:33:03;46.30;;;21.90;;
31910;SDS011;18457;52.432;16.914;2024-01-30T01:35:36;67.20;;;28.40;;
31910;SDS011;18457;52.432;16.914;2024-01-30T01:38:09;68.10;;;30.20;;
31910;SDS011;18457;52.432;16.914;2024-01-30T01:40:41;64.50;;;28.40;;
31910;SDS011;18457;52.432;16.914;2024-01-30T01:43:13;65.70;;;29.70;;
31910;SDS011;18457;52.432;16.914;2024-01-30T01:45:45;71.70;;;29.60;;
31910;SDS011;18457;52.432;16.914;2024-01-30T01:48:17;68.30;;;28.80;;
31910;SDS011;18457;52.432;16.914;2024-01-30T01:50:50;58.50;;;28.50;;
31910;SDS011;18457;52.432;16.914;2024-01-30T01:53:23;62.60;;;29.00;;
31910;SDS011;18457;52.432;16.914;2024-01-30T01:55:55;65.50;;;27.80;;
31910;SDS011;18457;52.432;16.914;2024-01-30T01:58:28;59.60;;;28.20;;
31910;SDS011;18457;52.432;16.914;2024-01-30T02:01:01;66.40;;;28.60;;
31910;SDS011;18457;52.432;16.914;2024-01-30T02:06:04;64.10;;;28.10;;
31910;SDS011;18457;52.432;16.914;2024-01-30T02:08:37;64.50;;;28.60;;
31910;SDS011;18457;52.432;16.914;2024-01-30T02:11:09;63.80;;;28.90;;
31910;SDS011;18457;52.432;16.914;2024-01-30T02:13:42;71.30;;;30.70;;
31910;SDS011;18457;52.432;16.914;2024-01-30T02:16:14;62.70;;;29.50;;
31910;SDS011;18457;52.432;16.914;2024-01-30T02:21:17;57.00;;;27.20;;
31910;SDS011;18457;52.432;16.914;2024-01-30T02:23:49;72.80;;;30.00;;
31910;SDS011;18457;52.432;16.914;2024-01-30T02:26:22;67.50;;;28.60;;
31910;SDS011;18457;52.432;16.914;2024-01-30T02:28:54;70.50;;;29.40;;
31910;SDS011;18457;52.432;16.914;2024-01-30T02:31:26;64.40;;;30.10;;
31910;SDS011;18457;52.432;16.914;2024-01-30T02:33:59;66.90;;;29.70;;
31910;SDS011;18457;52.432;16.914;2024-01-30T02:36:31;71.20;;;29.30;;
31910;SDS011;18457;52.432;16.914;2024-01-30T02:39:03;61.80;;;28.20;;
31910;SDS011;18457;52.432;16.914;2024-01-30T02:41:35;69.30;;;29.90;;
31910;SDS011;18457;52.432;16.914;2024-01-30T02:44:07;68.70;;;30.70;;
31910;SDS011;18457;52.432;16.914;2024-01-30T02:46:39;69.60;;;30.80;;
31910;SDS011;18457;52.432;16.914;2024-01-30T02:49:11;63.60;;;29.40;;
31910;SDS011;18457;52.432;16.914;2024-01-30T02:51:43;62.90;;;29.00;;
31910;SDS011;18457;52.432;16.914;2024-01-30T02:54:15;49.50;;;22.40;;
31910;SDS011;18457;52.432;16.914;2024-01-30T02:56:47;72.50;;;29.60;;
31910;SDS011;18457;52.432;16.914;2024-01-30T02:59:19;68.70;;;27.50;;
31910;SDS011;18457;52.432;16.914;2024-01-30T03:01:51;69.60;;;27.80;;
31910;SDS011;18457;52.432;16.914;2024-01-30T03:04:24;70.40;;;28.60;;
31910;SDS011;18457;52.432;16.914;2024-01-30T03:07:01;64.60;;;28.00;;
31910;SDS011;18457;52.432;16.914;2024-01-30T03:09:34;68.30;;;27.80;;
31910;SDS011;18457;52.432;16.914;2024-01-30T03:12:07;68.80;;;27.70;;
31910;SDS011;18457;52.432;16.914;2024-01-30T03:14:39;65.00;;;27.50;;
31910;SDS011;18457;52.432;16.914;2024-01-30T03:17:11;47.60;;;21.30;;
31910;SDS011;18457;52.432;16.914;2024-01-30T03:19:43;54.60;;;26.00;;
31910;SDS011;18457;52.432;16.914;2024-01-30T03:22:15;51.40;;;26.00;;
31910;SDS011;18457;52.432;16.914;2024-01-30T03:24:47;62.50;;;27.20;;
31910;SDS011;18457;52.432;16.914;2024-01-30T03:27:19;60.30;;;27.60;;
31910;SDS011;18457;52.432;16.914;2024-01-30T03:29:51;59.00;;;26.90;;
31910;SDS011;18457;52.432;16.914;2024-01-30T03:32:23;57.80;;;24.80;;
31910;SDS011;18457;52.432;16.914;2024-01-30T03:34:55;65.70;;;25.40;;
31910;SDS011;18457;52.432;16.914;2024-01-30T03:37:29;57.20;;;24.20;;
31910;SDS011;18457;52.432;16.914;2024-01-30T03:40:01;63.20;;;25.70;;
31910;SDS011;18457;52.432;16.914;2024-01-30T03:42:33;60.80;;;25.20;;
31910;SDS011;18457;52.432;16.914;2024-01-30T03:45:06;56.00;;;26.00;;
31910;SDS011;18457;52.432;16.914;2024-01-30T03:47:39;53.80;;;23.60;;
31910;SDS011;18457;52.432;16.914;2024-01-30T03:50:13;51.20;;;23.30;;
31910;SDS011;18457;52.432;16.914;2024-01-30T03:52:45;42.30;;;18.80;;
31910;SDS011;18457;52.432;16.914;2024-01-30T03:55:17;54.50;;;22.90;;
31910;SDS011;18457;52.432;16.914;2024-01-30T03:57:49;62.60;;;23.90;;
31910;SDS011;18457;52.432;16.914;2024-01-30T04:00:21;51.10;;;24.50;;
31910;SDS011;18457;52.432;16.914;2024-01-30T04:02:53;55.70;;;23.30;;
31910;SDS011;18457;52.432;16.914;2024-01-30T04:05:25;56.30;;;22.50;;
31910;SDS011;18457;52.432;16.914;2024-01-30T04:07:57;52.10;;;22.80;;
31910;SDS011;18457;52.432;16.914;2024-01-30T04:10:30;54.90;;;23.20;;
31910;SDS011;18457;52.432;16.914;2024-01-30T04:13:02;53.60;;;24.10;;
31910;SDS011;18457;52.432;16.914;2024-01-30T04:15:37;49.20;;;22.00;;
31910;SDS011;18457;52.432;16.914;2024-01-30T04:18:09;54.30;;;21.70;;
31910;SDS011;18457;52.432;16.914;2024-01-30T04:20:41;51.00;;;24.00;;
31910;SDS011;18457;52.432;16.914;2024-01-30T04:23:15;58.00;;;23.10;;
31910;SDS011;18457;52.432;16.914;2024-01-30T04:25:47;48.00;;;22.70;;
31910;SDS011;18457;52.432;16.914;2024-01-30T04:28:19;53.20;;;22.90;;
31910;SDS011;18457;52.432;16.914;2024-01-30T04:30:51;57.10;;;23.90;;
31910;SDS011;18457;52.432;16.914;2024-01-30T04:33:23;42.00;;;20.60;;
31910;SDS011;18457;52.432;16.914;2024-01-30T04:35:55;53.30;;;21.70;;
31910;SDS011;18457;52.432;16.914;2024-01-30T04:38:27;32.90;;;15.90;;
31910;SDS011;18457;52.432;16.914;2024-01-30T04:40:59;55.20;;;22.00;;
31910;SDS011;18457;52.432;16.914;2024-01-30T04:43:31;38.40;;;16.30;;
31910;SDS011;18457;52.432;16.914;2024-01-30T04:46:03;51.90;;;22.50;;
31910;SDS011;18457;52.432;16.914;2024-01-30T04:51:06;52.20;;;21.80;;
31910;SDS011;18457;52.432;16.914;2024-01-30T04:53:38;36.50;;;15.80;;
31910;SDS011;18457;52.432;16.914;2024-01-30T04:56:10;57.60;;;23.70;;
31910;SDS011;18457;52.432;16.914;2024-01-30T04:58:42;45.60;;;22.20;;
31910;SDS011;18457;52.432;16.914;2024-01-30T05:01:16;47.00;;;21.00;;
31910;SDS011;18457;52.432;16.914;2024-01-30T05:03:48;46.90;;;21.70;;
31910;SDS011;18457;52.432;16.914;2024-01-30T05:06:29;54.00;;;23.00;;
31910;SDS011;18457;52.432;16.914;2024-01-30T05:09:01;40.50;;;20.30;;
31910;SDS011;18457;52.432;16.914;2024-01-30T05:11:37;55.20;;;21.00;;
31910;SDS011;18457;52.432;16.914;2024-01-30T05:14:10;49.90;;;21.40;;
31910;SDS011;18457;52.432;16.914;2024-01-30T05:16:44;54.10;;;20.40;;
31910;SDS011;18457;52.432;16.914;2024-01-30T05:21:48;46.70;;;20.40;;
31910;SDS011;18457;52.432;16.914;2024-01-30T05:24:19;44.70;;;20.60;;
31910;SDS011;18457;52.432;16.914;2024-01-30T05:26:54;53.40;;;21.70;;
31910;SDS011;18457;52.432;16.914;2024-01-30T05:29:26;47.50;;;22.70;;
31910;SDS011;18457;52.432;16.914;2024-01-30T05:31:58;49.10;;;22.40;;
31910;SDS011;18457;52.432;16.914;2024-01-30T05:34:30;48.60;;;20.20;;
31910;SDS011;18457;52.432;16.914;2024-01-30T05:37:03;49.60;;;20.20;;
31910;SDS011;18457;52.432;16.914;2024-01-30T05:42:06;48.70;;;20.50;;
31910;SDS011;18457;52.432;16.914;2024-01-30T05:44:39;48.70;;;22.10;;
31910;SDS011;18457;52.432;16.914;2024-01-30T05:47:11;45.20;;;19.60;;
31910;SDS011;18457;52.432;16.914;2024-01-30T05:49:43;46.30;;;21.00;;
31910;SDS011;18457;52.432;16.914;2024-01-30T05:52:15;50.50;;;21.40;;
31910;SDS011;18457;52.432;16.914;2024-01-30T05:54:48;47.40;;;21.00;;
31910;SDS011;18457;52.432;16.914;2024-01-30T05:59:51;48.50;;;20.10;;
31910;SDS011;18457;52.432;16.914;2024-01-30T06:02:23;49.50;;;21.70;;
31910;SDS011;18457;52.432;16.914;2024-01-30T06:04:55;50.70;;;22.40;;
31910;SDS011;18457;52.432;16.914;2024-01-30T06:07:27;48.90;;;20.40;;
31910;SDS011;18457;52.432;16.914;2024-01-30T06:10:04;51.80;;;22.90;;
31910;SDS011;18457;52.432;16.914;2024-01-30T06:12:38;46.60;;;20.00;;
31910;SDS011;18457;52.432;16.914;2024-01-30T06:15:10;45.60;;;20.20;;
31910;SDS011;18457;52.432;16.914;2024-01-30T06:17:42;43.10;;;20.80;;
31910;SDS011;18457;52.432;16.914;2024-01-30T06:20:14;40.60;;;17.70;;
31910;SDS011;18457;52.432;16.914;2024-01-30T06:25:17;48.10;;;20.50;;
31910;SDS011;18457;52.432;16.914;2024-01-30T06:27:49;46.70;;;21.50;;
31910;SDS011;18457;52.432;16.914;2024-01-30T06:30:21;42.70;;;20.90;;
31910;SDS011;18457;52.432;16.914;2024-01-30T06:32:53;55.70;;;21.50;;
31910;SDS011;18457;52.432;16.914;2024-01-30T06:35:27;50.50;;;21.00;;
31910;SDS011;18457;52.432;16.914;2024-01-30T06:37:59;49.20;;;21.40;;
31910;SDS011;18457;52.432;16.914;2024-01-30T06:40:31;41.90;;;15.80;;
31910;SDS011;18457;52.432;16.914;2024-01-30T06:43:03;51.00;;;22.80;;
31910;SDS011;18457;52.432;16.914;2024-01-30T06:45:37;47.40;;;21.50;;
31910;SDS011;18457;52.432;16.914;2024-01-30T06:48:09;49.70;;;21.30;;
31910;SDS011;18457;52.432;16.914;2024-01-30T06:50:41;51.70;;;22.80;;
31910;SDS011;18457;52.432;16.914;2024-01-30T06:53:14;58.10;;;22.30;;
31910;SDS011;18457;52.432;16.914;2024-01-30T06:55:46;48.60;;;22.10;;
31910;SDS011;18457;52.432;16.914;2024-01-30T06:58:18;49.30;;;21.70;;
31910;SDS011;18457;52.432;16.914;2024-01-30T07:00:51;49.20;;;22.50;;
31910;SDS011;18457;52.432;16.914;2024-01-30T07:03:23;53.40;;;21.40;;
31910;SDS011;18457;52.432;16.914;2024-01-30T07:05:56;62.10;;;21.80;;
31910;SDS011;18457;52.432;16.914;2024-01-30T07:10:59;48.40;;;19.90;;
31910;SDS011;18457;52.432;16.914;2024-01-30T07:13:31;54.10;;;21.30;;
31910;SDS011;18457;52.432;16.914;2024-01-30T07:16:04;60.40;;;20.70;;
31910;SDS011;18457;52.432;16.914;2024-01-30T07:18:37;52.90;;;20.50;;
31910;SDS011;18457;52.432;16.914;2024-01-30T07:23:40;49.20;;;21.40;;
31910;SDS011;18457;52.432;16.914;2024-01-30T07:26:12;50.10;;;21.40;;
31910;SDS011;18457;52.432;16.914;2024-01-30T07:28:45;56.60;;;21.50;;
31910;SDS011;18457;52.432;16.914;2024-01-30T07:31:17;65.90;;;21.70;;
31910;SDS011;18457;52.432;16.914;2024-01-30T07:33:52;58.20;;;21.70;;
31910;SDS011;18457;52.432;16.914;2024-01-30T07:36:24;49.60;;;20.20;;
31910;SDS011;18457;52.432;16.914;2024-01-30T07:38:56;45.90;;;21.60;;
31910;SDS011;18457;52.432;16.914;2024-01-30T07:41:29;47.70;;;20.20;;
31910;SDS011;18457;52.432;16.914;2024-01-30T07:44:00;47.00;;;20.90;;
31910;SDS011;18457;52.432;16.914;2024-01-30T07:46:32;42.50;;;20.60;;
31910;SDS011;18457;52.432;16.914;2024-01-30T07:49:05;50.30;;;21.70;;
31910;SDS011;18457;52.432;16.914;2024-01-30T07:51:37;36.10;;;16.10;;
31910;SDS011;18457;52.432;16.914;2024-01-30T07:54:09;48.90;;;21.40;;
31910;SDS011;18457;52.432;16.914;2024-01-30T07:56:40;49.20;;;21.60;;
31910;SDS011;18457;52.432;16.914;2024-01-30T07:59:12;44.60;;;21.00;;
31910;SDS011;18457;52.432;16.914;2024-01-30T08:01:44;41.40;;;17.90;;
31910;SDS011;18457;52.432;16.914;2024-01-30T08:04:17;51.20;;;20.60;;
31910;SDS011;18457;52.432;16.914;2024-01-30T08:06:49;49.50;;;20.00;;
31910;SDS011;18457;52.432;16.914;2024-01-30T08:09:21;35.00;;;18.70;;
31910;SDS011;18457;52.432;16.914;2024-01-30T08:11:53;35.20;;;14.20;;
31910;SDS011;18457;52.432;16.914;2024-01-30T08:14:25;39.20;;;18.60;;
31910;SDS011;18457;52.432;16.914;2024-01-30T08:16:57;43.40;;;19.20;;
31910;SDS011;18457;52.432;16.914;2024-01-30T08:19:29;43.10;;;20.00;;
31910;SDS011;18457;52.432;16.914;2024-01-30T08:22:01;44.60;;;18.40;;
31910;SDS011;18457;52.432;16.914;2024-01-30T08:24:34;46.40;;;20.00;;
31910;SDS011;18457;52.432;16.914;2024-01-30T08:27:06;30.60;;;13.70;;
31910;SDS011;18457;52.432;16.914;2024-01-30T08:29:39;36.90;;;19.10;;
31910;SDS011;18457;52.432;16.914;2024-01-30T08:32:11;41.80;;;19.10;;
31910;SDS011;18457;52.432;16.914;2024-01-30T08:34:44;41.20;;;19.70;;
31910;SDS011;18457;52.432;16.914;2024-01-30T08:37:16;45.90;;;19.60;;
31910;SDS011;18457;52.432;16.914;2024-01-30T08:39:48;27.80;;;13.00;;
31910;SDS011;18457;52.432;16.914;2024-01-30T08:42:20;48.60;;;18.80;;
31910;SDS011;18457;52.432;16.914;2024-01-30T08:44:52;41.60;;;19.80;;
31910;SDS011;18457;52.432;16.914;2024-01-30T08:47:25;44.60;;;18.90;;
31910;SDS011;18457;52.432;16.914;2024-01-30T08:49:57;50.70;;;18.70;;
31910;SDS011;18457;52.432;16.914;2024-01-30T08:55:01;40.00;;;17.90;;
31910;SDS011;18457;52.432;16.914;2024-01-30T08:57:34;40.20;;;18.40;;
31910;SDS011;18457;52.432;16.914;2024-01-30T09:00:09;48.20;;;19.80;;
31910;SDS011;18457;52.432;16.914;2024-01-30T09:02:42;39.00;;;19.20;;
31910;SDS011;18457;52.432;16.914;2024-01-30T09:05:15;46.80;;;18.90;;
31910;SDS011;18457;52.432;16.914;2024-01-30T09:07:47;40.50;;;18.00;;
31910;SDS011;18457;52.432;16.914;2024-01-30T09:10:19;42.50;;;19.20;;
31910;SDS011;18457;52.432;16.914;2024-01-30T09:12:51;46.90;;;19.20;;
31910;SDS011;18457;52.432;16.914;2024-01-30T09:15:23;30.60;;;12.70;;
31910;SDS011;18457;52.432;16.914;2024-01-30T09:17:56;43.20;;;19.70;;
31910;SDS011;18457;52.432;16.914;2024-01-30T09:20:31;39.40;;;18.40;;
31910;SDS011;18457;52.432;16.914;2024-01-30T09:23:03;46.90;;;20.30;;
31910;SDS011;18457;52.432;16.914;2024-01-30T09:25:36;44.70;;;20.60;;
31910;SDS011;18457;52.432;16.914;2024-01-30T09:28:08;39.40;;;19.40;;
31910;SDS011;18457;52.432;16.914;2024-01-30T09:30:40;51.30;;;21.10;;
31910;SDS011;18457;52.432;16.914;2024-01-30T09:33:13;42.80;;;19.60;;
31910;SDS011;18457;52.432;16.914;2024-01-30T09:35:46;53.50;;;21.00;;
31910;SDS011;18457;52.432;16.914;2024-01-30T09:38:18;44.30;;;20.50;;
31910;SDS011;18457;52.432;16.914;2024-01-30T09:40:54;50.30;;;20.40;;
31910;SDS011;18457;52.432;16.914;2024-01-30T09:43:31;43.20;;;19.40;;
31910;SDS011;18457;52.432;16.914;2024-01-30T09:46:05;47.00;;;20.20;;
31910;SDS011;18457;52.432;16.914;2024-01-30T09:48:41;44.30;;;20.20;;
31910;SDS011;18457;52.432;16.914;2024-01-30T09:51:13;44.10;;;20.30;;
31910;SDS011;18457;52.432;16.914;2024-01-30T09:53:47;41.70;;;19.50;;
31910;SDS011;18457;52.432;16.914;2024-01-30T09:58:51;55.50;;;20.90;;
31910;SDS011;18457;52.432;16.914;2024-01-30T10:01:23;34.00;;;13.70;;
31910;SDS011;18457;52.432;16.914;2024-01-30T10:03:56;41.50;;;20.20;;
31910;SDS011;18457;52.432;16.914;2024-01-30T10:06:28;45.40;;;21.50;;
31910;SDS011;18457;52.432;16.914;2024-01-30T10:11:34;46.20;;;20.30;;
31910;SDS011;18457;52.432;16.914;2024-01-30T10:14:06;49.20;;;21.10;;
31910;SDS011;18457;52.432;16.914;2024-01-30T10:16:39;42.90;;;21.10;;
31910;SDS011;18457;52.432;16.914;2024-01-30T10:19:11;44.00;;;20.10;;
31910;SDS011;18457;52.432;16.914;2024-01-30T10:21:44;42.40;;;21.70;;
31910;SDS011;18457;52.432;16.914;2024-01-30T10:24:17;41.80;;;19.80;;
31910;SDS011;18457;52.432;16.914;2024-01-30T10:26:54;49.60;;;21.00;;
31910;SDS011;18457;52.432;16.914;2024-01-30T10:29:27;50.60;;;21.70;;
31910;SDS011;18457;52.432;16.914;2024-01-30T10:31:59;49.00;;;23.50;;
31910;SDS011;18457;52.432;16.914;2024-01-30T10:34:33;41.30;;;20.60;;
31910;SDS011;18457;52.432;16.914;2024-01-30T10:37:08;43.10;;;19.00;;
31910;SDS011;18457;52.432;16.914;2024-01-30T10:39:44;40.70;;;20.10;;
31910;SDS011;18457;52.432;16.914;2024-01-30T10:42:17;40.70;;;19.00;;
31910;SDS011;18457;52.432;16.914;2024-01-30T10:44:52;45.30;;;19.30;;
31910;SDS011;18457;52.432;16.914;2024-01-30T10:47:30;38.40;;;17.60;;
31910;SDS011;18457;52.432;16.914;2024-01-30T10:50:07;39.20;;;19.00;;
31910;SDS011;18457;52.432;16.914;2024-01-30T10:52:40;42.80;;;17.20;;
31910;SDS011;18457;52.432;16.914;2024-01-30T10:57:44;33.20;;;16.50;;
31910;SDS011;18457;52.432;16.914;2024-01-30T11:00:16;34.90;;;16.50;;
31910;SDS011;18457;52.432;16.914;2024-01-30T11:02:53;30.30;;;16.40;;
31910;SDS011;18457;52.432;16.914;2024-01-30T11:05:27;35.40;;;16.60;;
31910;SDS011;18457;52.432;16.914;2024-01-30T11:08:11;32.20;;;15.80;;
31910;SDS011;18457;52.432;16.914;2024-01-30T11:10:47;37.00;;;15.40;;
31910;SDS011;18457;52.432;16.914;2024-01-30T11:13:27;33.30;;;15.60;;
31910;SDS011;18457;52.432;16.914;2024-01-30T11:16:01;30.10;;;16.00;;
31910;SDS011;18457;52.432;16.914;2024-01-30T11:18:35;32.40;;;15.00;;
31910;SDS011;18457;52.432;16.914;2024-01-30T11:23:38;31.20;;;16.10;;
31910;SDS011;18457;52.432;16.914;2024-01-30T11:26:11;34.00;;;15.90;;
31910;SDS011;18457;52.432;16.914;2024-01-30T11:28:43;33.30;;;15.50;;
31910;SDS011;18457;52.432;16.914;2024-01-30T11:31:25;32.70;;;15.90;;
31910;SDS011;18457;52.432;16.914;2024-01-30T11:33:57;27.50;;;14.50;;
31910;SDS011;18457;52.432;16.914;2024-01-30T11:36:31;27.00;;;14.10;;
31910;SDS011;18457;52.432;16.914;2024-01-30T11:39:06;28.90;;;15.50;;
31910;SDS011;18457;52.432;16.914;2024-01-30T11:41:39;38.20;;;17.00;;
31910;SDS011;18457;52.432;16.914;2024-01-30T11:44:12;36.40;;;15.70;;
31910;SDS011;18457;52.432;16.914;2024-01-30T11:46:45;28.90;;;15.20;;
31910;SDS011;18457;52.432;16.914;2024-01-30T11:51:49;26.90;;;13.80;;
31910;SDS011;18457;52.432;16.914;2024-01-30T11:54:23;31.60;;;14.60;;
31910;SDS011;18457;52.432;16.914;2024-01-30T11:56:55;33.10;;;15.50;;
31910;SDS011;18457;52.432;16.914;2024-01-30T11:59:27;28.30;;;14.80;;
31910;SDS011;18457;52.432;16.914;2024-01-30T12:01:59;25.90;;;11.80;;
31910;SDS011;18457;52.432;16.914;2024-01-30T12:04:31;29.00;;;15.60;;
31910;SDS011;18457;52.432;16.914;2024-01-30T12:07:03;28.00;;;14.20;;
31910;SDS011;18457;52.432;16.914;2024-01-30T12:09:36;23.60;;;13.40;;
31910;SDS011;18457;52.432;16.914;2024-01-30T12:12:08;21.70;;;11.20;;
31910;SDS011;18457;52.432;16.914;2024-01-30T12:14:41;27.60;;;14.30;;
31910;SDS011;18457;52.432;16.914;2024-01-30T12:17:23;31.90;;;14.30;;
31910;SDS011;18457;52.432;16.914;2024-01-30T12:22:38;35.70;;;15.40;;
31910;SDS011;18457;52.432;16.914;2024-01-30T12:25:13;30.00;;;15.40;;
31910;SDS011;18457;52.432;16.914;2024-01-30T12:27:47;26.70;;;14.50;;
31910;SDS011;18457;52.432;16.914;2024-01-30T12:30:21;26.70;;;15.00;;
31910;SDS011;18457;52.432;16.914;2024-01-30T12:32:53;28.90;;;14.60;;
31910;SDS011;18457;52.432;16.914;2024-01-30T12:35:27;29.30;;;13.60;;
31910;SDS011;18457;52.432;16.914;2024-01-30T12:38:02;31.90;;;15.40;;
31910;SDS011;18457;52.432;16.914;2024-01-30T12:40:34;28.60;;;14.60;;
31910;SDS011;18457;52.432;16.914;2024-01-30T12:43:10;39.50;;;16.00;;
31910;SDS011;18457;52.432;16.914;2024-01-30T12:45:55;28.80;;;14.60;;
31910;SDS011;18457;52.432;16.914;2024-01-30T12:48:28;30.90;;;14.30;;
31910;SDS011;18457;52.432;16.914;2024-01-30T12:51:01;28.40;;;13.80;;
31910;SDS011;18457;52.432;16.914;2024-01-30T12:53:34;35.10;;;14.80;;
31910;SDS011;18457;52.432;16.914;2024-01-30T12:56:06;26.50;;;14.10;;
31910;SDS011;18457;52.432;16.914;2024-01-30T12:58:38;35.30;;;14.80;;
31910;SDS011;18457;52.432;16.914;2024-01-30T13:01:14;29.80;;;14.40;;
31910;SDS011;18457;52.432;16.914;2024-01-30T13:03:46;30.70;;;14.50;;
31910;SDS011;18457;52.432;16.914;2024-01-30T13:06:18;25.30;;;12.40;;
31910;SDS011;18457;52.432;16.914;2024-01-30T13:08:50;33.80;;;15.00;;
31910;SDS011;18457;52.432;16.914;2024-01-30T13:11:22;24.70;;;11.40;;
31910;SDS011;18457;52.432;16.914;2024-01-30T13:13:55;35.60;;;16.30;;
31910;SDS011;18457;52.432;16.914;2024-01-30T13:18:58;28.70;;;15.00;;
31910;SDS011;18457;52.432;16.914;2024-01-30T13:24:02;30.50;;;14.70;;
31910;SDS011;18457;52.432;16.914;2024-01-30T13:26:35;34.60;;;16.50;;
31910;SDS011;18457;52.432;16.914;2024-01-30T13:29:08;31.30;;;15.70;;
31910;SDS011;18457;52.432;16.914;2024-01-30T13:31:40;33.00;;;17.10;;
31910;SDS011;18457;52.432;16.914;2024-01-30T13:34:13;35.70;;;18.20;;
31910;SDS011;18457;52.432;16.914;2024-01-30T13:36:46;35.10;;;17.00;;
31910;SDS011;18457;52.432;16.914;2024-01-30T13:39:18;37.70;;;15.80;;
31910;SDS011;18457;52.432;16.914;2024-01-30T13:41:53;33.50;;;16.80;;
31910;SDS011;18457;52.432;16.914;2024-01-30T13:44:26;30.00;;;15.80;;
31910;SDS011;18457;52.432;16.914;2024-01-30T13:46:58;24.10;;;11.10;;
31910;SDS011;18457;52.432;16.914;2024-01-30T13:52:02;40.30;;;17.10;;
31910;SDS011;18457;52.432;16.914;2024-01-30T13:57:05;37.00;;;16.40;;
31910;SDS011;18457;52.432;16.914;2024-01-30T14:02:09;31.20;;;15.80;;
31910;SDS011;18457;52.432;16.914;2024-01-30T14:04:41;37.80;;;18.30;;
31910;SDS011;18457;52.432;16.914;2024-01-30T14:07:14;36.60;;;18.60;;
31910;SDS011;18457;52.432;16.914;2024-01-30T14:09:47;36.00;;;17.50;;
31910;SDS011;18457;52.432;16.914;2024-01-30T14:12:20;41.50;;;18.60;;
31910;SDS011;18457;52.432;16.914;2024-01-30T14:14:52;38.10;;;18.00;;
31910;SDS011;18457;52.432;16.914;2024-01-30T14:17:24;36.30;;;18.50;;
31910;SDS011;18457;52.432;16.914;2024-01-30T14:19:56;28.10;;;11.80;;
31910;SDS011;18457;52.432;16.914;2024-01-30T14:22:29;40.20;;;17.70;;
31910;SDS011;18457;52.432;16.914;2024-01-30T14:25:01;42.90;;;16.90;;
31910;SDS011;18457;52.432;16.914;2024-01-30T14:27:35;37.70;;;16.90;;
31910;SDS011;18457;52.432;16.914;2024-01-30T14:30:08;35.60;;;17.20;;
31910;SDS011;18457;52.432;16.914;2024-01-30T14:32:42;41.10;;;17.40;;
31910;SDS011;18457;52.432;16.914;2024-01-30T14:35:14;36.60;;;16.70;;
31910;SDS011;18457;52.432;16.914;2024-01-30T14:37:46;36.60;;;17.50;;
31910;SDS011;18457;52.432;16.914;2024-01-30T14:40:19;30.50;;;16.20;;
31910;SDS011;18457;52.432;16.914;2024-01-30T14:42:51;31.20;;;16.00;;
31910;SDS011;18457;52.432;16.914;2024-01-30T14:45:24;33.50;;;16.10;;
31910;SDS011;18457;52.432;16.914;2024-01-30T14:47:56;33.10;;;16.30;;
31910;SDS011;18457;52.432;16.914;2024-01-30T14:50:29;45.90;;;18.30;;
31910;SDS011;18457;52.432;16.914;2024-01-30T14:53:01;36.50;;;17.70;;
31910;SDS011;18457;52.432;16.914;2024-01-30T14:55:33;42.90;;;17.80;;
31910;SDS011;18457;52.432;16.914;2024-01-30T14:58:05;36.90;;;18.50;;
31910;SDS011;18457;52.432;16.914;2024-01-30T15:00:38;36.60;;;17.10;;
31910;SDS011;18457;52.432;16.914;2024-01-30T15:03:10;46.50;;;18.80;;
31910;SDS011;18457;52.432;16.914;2024-01-30T15:05:42;34.90;;;18.10;;
31910;SDS011;18457;52.432;16.914;2024-01-30T15:08:14;41.40;;;20.40;;
31910;SDS011;18457;52.432;16.914;2024-01-30T15:10:47;39.00;;;19.40;;
31910;SDS011;18457;52.432;16.914;2024-01-30T15:13:20;31.90;;;17.70;;
31910;SDS011;18457;52.432;16.914;2024-01-30T15:15:52;44.40;;;20.00;;
31910;SDS011;18457;52.432;16.914;2024-01-30T15:18:24;39.30;;;20.30;;
31910;SDS011;18457;52.432;16.914;2024-01-30T15:20:56;45.20;;;20.00;;
31910;SDS011;18457;52.432;16.914;2024-01-30T15:25:59;33.30;;;18.40;;
31910;SDS011;18457;52.432;16.914;2024-01-30T15:28:35;42.20;;;21.10;;
31910;SDS011;18457;52.432;16.914;2024-01-30T15:31:08;41.20;;;19.80;;
31910;SDS011;18457;52.432;16.914;2024-01-30T15:33:40;40.70;;;21.50;;
31910;SDS011;18457;52.432;16.914;2024-01-30T15:36:12;45.40;;;20.90;;
31910;SDS011;18457;52.432;16.914;2024-01-30T15:41:16;47.30;;;19.70;;